sensor_id;sensor_type;location;lat;lon;timestamp;temperature;humidity
65985;HTU21D;52748;51.112;5.880;2023-02-22T00:00:56;20.16;62.94
65985;HTU21D;52748;51.112;5.880;2023-02-22T00:03:30;20.15;62.93
65985;HTU21D;52748;51.112;5.880;2023-02-22T00:06:04;20.15;62.92
65985;HTU21D;52748;51.112;5.880;2023-02-22T00:08:35;20.14;62.92
65985;HTU21D;52748;51.112;5.880;2023-02-22T00:11:05;20.14;62.90
65985;HTU21D;52748;51.112;5.880;2023-02-22T00:13:35;20.14;62.91
65985;HTU21D;52748;51.112;5.880;2023-02-22T00:16:01;20.15;62.90
65985;HTU21D;52748;51.112;5.880;2023-02-22T00:18:28;20.13;62.89
65985;HTU21D;52748;51.112;5.880;2023-02-22T00:20:55;20.13;62.89
65985;HTU21D;52748;51.112;5.880;2023-02-22T00:23:25;20.12;62.87
65985;HTU21D;52748;51.112;5.880;2023-02-22T00:25:54;20.16;62.64
65985;HTU21D;52748;51.112;5.880;2023-02-22T00:28:20;20.17;62.42
65985;HTU21D;52748;51.112;5.880;2023-02-22T00:30:49;20.14;62.47
65985;HTU21D;52748;51.112;5.880;2023-02-22T00:33:15;20.13;62.54
65985;HTU21D;52748;51.112;5.880;2023-02-22T00:35:46;20.13;62.51
65985;HTU21D;52748;51.112;5.880;2023-02-22T00:38:14;20.11;62.50
65985;HTU21D;52748;51.112;5.880;2023-02-22T00:40:41;20.10;62.58
65985;HTU21D;52748;51.112;5.880;2023-02-22T00:43:07;20.09;62.60
65985;HTU21D;52748;51.112;5.880;2023-02-22T00:45:35;20.07;62.60
65985;HTU21D;52748;51.112;5.880;2023-02-22T00:48:03;20.06;62.58
65985;HTU21D;52748;51.112;5.880;2023-02-22T00:50:31;20.05;62.50
65985;HTU21D;52748;51.112;5.880;2023-02-22T00:52:59;20.07;62.49
65985;HTU21D;52748;51.112;5.880;2023-02-22T00:55:29;20.05;62.44
65985;HTU21D;52748;51.112;5.880;2023-02-22T00:57:56;20.06;62.42
65985;HTU21D;52748;51.112;5.880;2023-02-22T01:00:31;20.06;62.41
65985;HTU21D;52748;51.112;5.880;2023-02-22T01:03:00;20.04;62.34
65985;HTU21D;52748;51.112;5.880;2023-02-22T01:05:29;20.04;62.34
65985;HTU21D;52748;51.112;5.880;2023-02-22T01:07:57;20.03;62.31
65985;HTU21D;52748;51.112;5.880;2023-02-22T01:10:25;20.03;62.30
65985;HTU21D;52748;51.112;5.880;2023-02-22T01:12:52;20.03;62.20
65985;HTU21D;52748;51.112;5.880;2023-02-22T01:15:21;20.02;62.18
65985;HTU21D;52748;51.112;5.880;2023-02-22T01:17:49;20.02;62.19
65985;HTU21D;52748;51.112;5.880;2023-02-22T01:20:17;20.02;62.22
65985;HTU21D;52748;51.112;5.880;2023-02-22T01:22:47;20.01;62.16
65985;HTU21D;52748;51.112;5.880;2023-02-22T01:25:21;20.01;62.11
65985;HTU21D;52748;51.112;5.880;2023-02-22T01:27:48;20.01;62.10
65985;HTU21D;52748;51.112;5.880;2023-02-22T01:30:21;20.00;62.05
65985;HTU21D;52748;51.112;5.880;2023-02-22T01:32:49;19.99;62.07
65985;HTU21D;52748;51.112;5.880;2023-02-22T01:35:18;20.01;62.06
65985;HTU21D;52748;51.112;5.880;2023-02-22T01:37:45;19.99;62.09
65985;HTU21D;52748;51.112;5.880;2023-02-22T01:40:59;19.99;62.02
65985;HTU21D;52748;51.112;5.880;2023-02-22T01:43:29;20.00;62.00
65985;HTU21D;52748;51.112;5.880;2023-02-22T01:45:59;20.01;61.89
65985;HTU21D;52748;51.112;5.880;2023-02-22T01:48:45;20.04;61.60
65985;HTU21D;52748;51.112;5.880;2023-02-22T01:51:25;20.01;61.61
65985;HTU21D;52748;51.112;5.880;2023-02-22T01:54:02;19.99;61.75
65985;HTU21D;52748;51.112;5.880;2023-02-22T01:56:35;19.97;61.81
65985;HTU21D;52748;51.112;5.880;2023-02-22T01:59:08;19.98;61.83
65985;HTU21D;52748;51.112;5.880;2023-02-22T02:01:39;20.01;61.60
65985;HTU21D;52748;51.112;5.880;2023-02-22T02:04:20;20.00;61.54
65985;HTU21D;52748;51.112;5.880;2023-02-22T02:06:58;19.96;61.66
65985;HTU21D;52748;51.112;5.880;2023-02-22T02:09:54;19.95;61.77
65985;HTU21D;52748;51.112;5.880;2023-02-22T02:12:21;19.94;61.81
65985;HTU21D;52748;51.112;5.880;2023-02-22T02:14:50;19.94;61.82
65985;HTU21D;52748;51.112;5.880;2023-02-22T02:17:21;19.92;61.84
65985;HTU21D;52748;51.112;5.880;2023-02-22T02:20:12;19.92;61.85
65985;HTU21D;52748;51.112;5.880;2023-02-22T02:22:51;19.90;61.85
65985;HTU21D;52748;51.112;5.880;2023-02-22T02:36:57;19.91;61.48
65985;HTU21D;52748;51.112;5.880;2023-02-22T02:39:30;19.90;61.57
65985;HTU21D;52748;51.112;5.880;2023-02-22T02:42:05;19.88;61.67
65985;HTU21D;52748;51.112;5.880;2023-02-22T02:44:46;19.87;61.74
65985;HTU21D;52748;51.112;5.880;2023-02-22T02:47:31;19.87;61.75
65985;HTU21D;52748;51.112;5.880;2023-02-22T02:50:24;19.87;61.75
65985;HTU21D;52748;51.112;5.880;2023-02-22T02:52:57;19.86;61.73
65985;HTU21D;52748;51.112;5.880;2023-02-22T02:55:28;19.86;61.72
65985;HTU21D;52748;51.112;5.880;2023-02-22T02:57:55;19.85;61.67
65985;HTU21D;52748;51.112;5.880;2023-02-22T03:00:27;19.84;61.68
65985;HTU21D;52748;51.112;5.880;2023-02-22T03:11:10;19.84;61.52
65985;HTU21D;52748;51.112;5.880;2023-02-22T03:14:07;19.84;61.50
65985;HTU21D;52748;51.112;5.880;2023-02-22T03:16:51;19.82;61.52
65985;HTU21D;52748;51.112;5.880;2023-02-22T03:19:32;19.83;61.54
65985;HTU21D;52748;51.112;5.880;2023-02-22T03:22:16;19.82;61.53
65985;HTU21D;52748;51.112;5.880;2023-02-22T03:27:47;19.82;61.58
65985;HTU21D;52748;51.112;5.880;2023-02-22T03:30:26;19.81;61.61
65985;HTU21D;52748;51.112;5.880;2023-02-22T03:33:04;19.81;61.74
65985;HTU21D;52748;51.112;5.880;2023-02-22T03:35:42;19.82;61.78
65985;HTU21D;52748;51.112;5.880;2023-02-22T03:38:14;19.81;61.89
65985;HTU21D;52748;51.112;5.880;2023-02-22T03:40:47;19.85;61.89
65985;HTU21D;52748;51.112;5.880;2023-02-22T03:43:22;19.82;62.51
65985;HTU21D;52748;51.112;5.880;2023-02-22T03:45:52;19.82;62.45
65985;HTU21D;52748;51.112;5.880;2023-02-22T03:49:08;19.82;62.44
65985;HTU21D;52748;51.112;5.880;2023-02-22T03:51:11;19.81;62.39
65985;HTU21D;52748;51.112;5.880;2023-02-22T03:53:42;19.81;62.35
65985;HTU21D;52748;51.112;5.880;2023-02-22T03:56:14;19.81;62.28
65985;HTU21D;52748;51.112;5.880;2023-02-22T03:58:43;19.81;62.24
65985;HTU21D;52748;51.112;5.880;2023-02-22T04:01:12;19.80;62.28
65985;HTU21D;52748;51.112;5.880;2023-02-22T04:03:38;19.80;62.30
65985;HTU21D;52748;51.112;5.880;2023-02-22T04:06:05;19.80;62.37
65985;HTU21D;52748;51.112;5.880;2023-02-22T04:08:31;19.79;62.24
65985;HTU21D;52748;51.112;5.880;2023-02-22T04:10:58;19.77;62.21
65985;HTU21D;52748;51.112;5.880;2023-02-22T04:13:27;19.79;62.26
65985;HTU21D;52748;51.112;5.880;2023-02-22T04:15:53;19.77;62.31
65985;HTU21D;52748;51.112;5.880;2023-02-22T04:18:22;19.76;62.23
65985;HTU21D;52748;51.112;5.880;2023-02-22T04:20:49;19.76;62.24
65985;HTU21D;52748;51.112;5.880;2023-02-22T04:23:27;19.77;62.23
65985;HTU21D;52748;51.112;5.880;2023-02-22T04:25:53;19.75;62.25
65985;HTU21D;52748;51.112;5.880;2023-02-22T04:28:19;19.80;62.10
65985;HTU21D;52748;51.112;5.880;2023-02-22T04:30:53;19.79;61.93
65985;HTU21D;52748;51.112;5.880;2023-02-22T04:33:19;19.76;62.01
65985;HTU21D;52748;51.112;5.880;2023-02-22T04:35:45;19.76;62.19
65985;HTU21D;52748;51.112;5.880;2023-02-22T04:38:12;19.75;62.18
65985;HTU21D;52748;51.112;5.880;2023-02-22T04:40:39;19.75;62.20
65985;HTU21D;52748;51.112;5.880;2023-02-22T04:43:06;19.75;62.21
65985;HTU21D;52748;51.112;5.880;2023-02-22T04:45:31;19.74;62.28
65985;HTU21D;52748;51.112;5.880;2023-02-22T04:47:58;19.73;62.34
65985;HTU21D;52748;51.112;5.880;2023-02-22T04:50:24;19.71;62.39
65985;HTU21D;52748;51.112;5.880;2023-02-22T04:52:49;19.73;62.34
65985;HTU21D;52748;51.112;5.880;2023-02-22T04:55:15;19.73;62.31
65985;HTU21D;52748;51.112;5.880;2023-02-22T04:57:42;19.72;62.29
65985;HTU21D;52748;51.112;5.880;2023-02-22T05:00:08;19.71;62.21
65985;HTU21D;52748;51.112;5.880;2023-02-22T05:02:39;19.71;62.24
65985;HTU21D;52748;51.112;5.880;2023-02-22T05:05:05;19.71;62.17
65985;HTU21D;52748;51.112;5.880;2023-02-22T05:07:31;19.71;62.10
65985;HTU21D;52748;51.112;5.880;2023-02-22T05:09:57;19.70;62.12
65985;HTU21D;52748;51.112;5.880;2023-02-22T05:12:26;19.69;62.12
65985;HTU21D;52748;51.112;5.880;2023-02-22T05:14:52;19.70;62.08
65985;HTU21D;52748;51.112;5.880;2023-02-22T05:17:17;19.69;61.97
65985;HTU21D;52748;51.112;5.880;2023-02-22T05:19:43;19.69;61.96
65985;HTU21D;52748;51.112;5.880;2023-02-22T05:22:09;19.68;61.89
65985;HTU21D;52748;51.112;5.880;2023-02-22T05:24:35;19.69;61.89
65985;HTU21D;52748;51.112;5.880;2023-02-22T05:27:01;19.68;61.86
65985;HTU21D;52748;51.112;5.880;2023-02-22T05:29:27;19.67;61.84
65985;HTU21D;52748;51.112;5.880;2023-02-22T05:31:53;19.67;61.93
65985;HTU21D;52748;51.112;5.880;2023-02-22T05:34:19;19.67;61.96
65985;HTU21D;52748;51.112;5.880;2023-02-22T05:36:45;19.65;61.99
65985;HTU21D;52748;51.112;5.880;2023-02-22T05:39:11;19.66;62.03
65985;HTU21D;52748;51.112;5.880;2023-02-22T05:41:37;19.68;61.96
65985;HTU21D;52748;51.112;5.880;2023-02-22T05:44:03;19.67;62.04
65985;HTU21D;52748;51.112;5.880;2023-02-22T05:46:29;19.67;62.20
65985;HTU21D;52748;51.112;5.880;2023-02-22T05:48:55;19.67;62.44
65985;HTU21D;52748;51.112;5.880;2023-02-22T05:51:22;19.69;62.61
65985;HTU21D;52748;51.112;5.880;2023-02-22T05:53:48;19.72;62.66
65985;HTU21D;52748;51.112;5.880;2023-02-22T05:56:24;19.71;62.68
65985;HTU21D;52748;51.112;5.880;2023-02-22T05:58:51;19.74;62.67
65985;HTU21D;52748;51.112;5.880;2023-02-22T06:01:17;19.73;62.82
65985;HTU21D;52748;51.112;5.880;2023-02-22T06:03:49;19.75;62.89
65985;HTU21D;52748;51.112;5.880;2023-02-22T06:06:16;19.76;62.89
65985;HTU21D;52748;51.112;5.880;2023-02-22T06:08:42;19.76;62.91
65985;HTU21D;52748;51.112;5.880;2023-02-22T06:11:09;19.77;62.90
65985;HTU21D;52748;51.112;5.880;2023-02-22T06:13:35;19.79;62.92
65985;HTU21D;52748;51.112;5.880;2023-02-22T06:16:02;19.80;62.94
65985;HTU21D;52748;51.112;5.880;2023-02-22T06:18:31;19.81;62.97
65985;HTU21D;52748;51.112;5.880;2023-02-22T06:20:58;19.84;62.89
65985;HTU21D;52748;51.112;5.880;2023-02-22T06:23:25;19.88;62.66
65985;HTU21D;52748;51.112;5.880;2023-02-22T06:25:52;19.90;62.49
65985;HTU21D;52748;51.112;5.880;2023-02-22T06:28:18;19.92;62.34
65985;HTU21D;52748;51.112;5.880;2023-02-22T06:30:43;19.94;62.23
65985;HTU21D;52748;51.112;5.880;2023-02-22T06:33:10;19.94;62.10
65985;HTU21D;52748;51.112;5.880;2023-02-22T06:35:36;19.89;62.09
65985;HTU21D;52748;51.112;5.880;2023-02-22T06:38:02;19.89;62.14
65985;HTU21D;52748;51.112;5.880;2023-02-22T06:40:28;19.88;62.21
65985;HTU21D;52748;51.112;5.880;2023-02-22T06:42:55;19.87;62.35
65985;HTU21D;52748;51.112;5.880;2023-02-22T06:45:22;19.87;62.48
65985;HTU21D;52748;51.112;5.880;2023-02-22T06:47:48;19.88;62.57
65985;HTU21D;52748;51.112;5.880;2023-02-22T06:50:22;19.87;62.62
65985;HTU21D;52748;51.112;5.880;2023-02-22T06:52:51;19.88;62.70
65985;HTU21D;52748;51.112;5.880;2023-02-22T06:55:31;19.88;62.78
65985;HTU21D;52748;51.112;5.880;2023-02-22T06:57:58;19.90;62.82
65985;HTU21D;52748;51.112;5.880;2023-02-22T07:00:26;19.89;62.84
65985;HTU21D;52748;51.112;5.880;2023-02-22T07:02:52;19.91;62.84
65985;HTU21D;52748;51.112;5.880;2023-02-22T07:05:23;19.90;63.44
65985;HTU21D;52748;51.112;5.880;2023-02-22T07:07:51;19.86;60.05
65985;HTU21D;52748;51.112;5.880;2023-02-22T07:10:21;19.77;59.54
65985;HTU21D;52748;51.112;5.880;2023-02-22T07:12:51;19.73;60.22
65985;HTU21D;52748;51.112;5.880;2023-02-22T07:15:22;19.71;60.95
65985;HTU21D;52748;51.112;5.880;2023-02-22T07:17:49;19.70;61.43
65985;HTU21D;52748;51.112;5.880;2023-02-22T07:20:16;19.69;61.82
65985;HTU21D;52748;51.112;5.880;2023-02-22T07:22:43;19.69;62.02
65985;HTU21D;52748;51.112;5.880;2023-02-22T07:25:09;19.68;62.24
65985;HTU21D;52748;51.112;5.880;2023-02-22T07:27:40;19.68;62.41
65985;HTU21D;52748;51.112;5.880;2023-02-22T07:30:19;19.67;62.57
65985;HTU21D;52748;51.112;5.880;2023-02-22T07:32:46;19.66;62.68
65985;HTU21D;52748;51.112;5.880;2023-02-22T07:35:21;19.68;62.80
65985;HTU21D;52748;51.112;5.880;2023-02-22T07:37:47;19.68;62.91
65985;HTU21D;52748;51.112;5.880;2023-02-22T07:40:14;19.76;62.61
65985;HTU21D;52748;51.112;5.880;2023-02-22T07:42:51;19.73;58.07
65985;HTU21D;52748;51.112;5.880;2023-02-22T07:45:18;19.51;55.55
65985;HTU21D;52748;51.112;5.880;2023-02-22T07:47:45;19.38;56.37
65985;HTU21D;52748;51.112;5.880;2023-02-22T07:50:16;19.29;58.06
65985;HTU21D;52748;51.112;5.880;2023-02-22T07:52:47;19.27;58.96
65985;HTU21D;52748;51.112;5.880;2023-02-22T07:55:15;19.32;59.67
65985;HTU21D;52748;51.112;5.880;2023-02-22T07:57:42;19.36;60.67
65985;HTU21D;52748;51.112;5.880;2023-02-22T08:00:10;19.43;61.74
65985;HTU21D;52748;51.112;5.880;2023-02-22T08:02:38;19.48;61.97
65985;HTU21D;52748;51.112;5.880;2023-02-22T08:05:05;19.54;61.91
65985;HTU21D;52748;51.112;5.880;2023-02-22T08:07:31;19.58;61.79
65985;HTU21D;52748;51.112;5.880;2023-02-22T08:09:57;19.62;61.72
65985;HTU21D;52748;51.112;5.880;2023-02-22T08:12:23;19.65;61.60
65985;HTU21D;52748;51.112;5.880;2023-02-22T08:14:52;19.68;61.66
65985;HTU21D;52748;51.112;5.880;2023-02-22T08:17:19;19.71;61.50
65985;HTU21D;52748;51.112;5.880;2023-02-22T08:19:44;19.72;61.38
65985;HTU21D;52748;51.112;5.880;2023-02-22T08:22:10;19.75;61.42
65985;HTU21D;52748;51.112;5.880;2023-02-22T08:24:36;19.62;58.69
65985;HTU21D;52748;51.112;5.880;2023-02-22T08:27:02;19.61;61.89
65985;HTU21D;52748;51.112;5.880;2023-02-22T08:29:28;19.65;63.26
65985;HTU21D;52748;51.112;5.880;2023-02-22T08:31:59;19.69;63.76
65985;HTU21D;52748;51.112;5.880;2023-02-22T08:34:25;19.75;63.88
65985;HTU21D;52748;51.112;5.880;2023-02-22T08:36:51;19.79;63.87
65985;HTU21D;52748;51.112;5.880;2023-02-22T08:39:16;19.82;63.80
65985;HTU21D;52748;51.112;5.880;2023-02-22T08:41:42;19.87;63.76
65985;HTU21D;52748;51.112;5.880;2023-02-22T08:44:08;19.90;63.70
65985;HTU21D;52748;51.112;5.880;2023-02-22T08:46:34;19.92;62.30
65985;HTU21D;52748;51.112;5.880;2023-02-22T08:49:00;19.92;61.09
65985;HTU21D;52748;51.112;5.880;2023-02-22T08:51:26;19.87;61.32
65985;HTU21D;52748;51.112;5.880;2023-02-22T08:53:52;19.88;61.89
65985;HTU21D;52748;51.112;5.880;2023-02-22T08:56:18;19.91;61.47
65985;HTU21D;52748;51.112;5.880;2023-02-22T08:58:44;19.94;61.34
65985;HTU21D;52748;51.112;5.880;2023-02-22T09:01:09;19.94;61.44
65985;HTU21D;52748;51.112;5.880;2023-02-22T09:03:35;19.95;61.49
65985;HTU21D;52748;51.112;5.880;2023-02-22T09:06:03;19.98;61.43
65985;HTU21D;52748;51.112;5.880;2023-02-22T09:08:29;19.99;61.38
65985;HTU21D;52748;51.112;5.880;2023-02-22T09:10:55;19.99;61.28
65985;HTU21D;52748;51.112;5.880;2023-02-22T09:13:21;19.99;61.18
65985;HTU21D;52748;51.112;5.880;2023-02-22T09:15:46;19.99;61.19
65985;HTU21D;52748;51.112;5.880;2023-02-22T09:18:13;19.99;61.11
65985;HTU21D;52748;51.112;5.880;2023-02-22T09:20:39;20.00;61.09
65985;HTU21D;52748;51.112;5.880;2023-02-22T09:23:06;20.01;61.12
65985;HTU21D;52748;51.112;5.880;2023-02-22T09:25:34;20.00;61.16
65985;HTU21D;52748;51.112;5.880;2023-02-22T09:28:00;20.00;61.18
65985;HTU21D;52748;51.112;5.880;2023-02-22T09:30:30;20.01;61.11
65985;HTU21D;52748;51.112;5.880;2023-02-22T09:33:00;20.01;61.09
65985;HTU21D;52748;51.112;5.880;2023-02-22T09:35:26;20.00;60.99
65985;HTU21D;52748;51.112;5.880;2023-02-22T09:37:57;20.00;61.03
65985;HTU21D;52748;51.112;5.880;2023-02-22T09:40:25;20.04;60.88
65985;HTU21D;52748;51.112;5.880;2023-02-22T09:45:53;20.06;60.77
65985;HTU21D;52748;51.112;5.880;2023-02-22T09:48:23;20.03;60.81
65985;HTU21D;52748;51.112;5.880;2023-02-22T09:50:53;20.06;60.76
65985;HTU21D;52748;51.112;5.880;2023-02-22T09:53:53;20.05;60.64
65985;HTU21D;52748;51.112;5.880;2023-02-22T09:56:23;20.05;60.64
65985;HTU21D;52748;51.112;5.880;2023-02-22T09:58:53;20.06;60.44
65985;HTU21D;52748;51.112;5.880;2023-02-22T10:07:20;20.01;60.93
65985;HTU21D;52748;51.112;5.880;2023-02-22T10:09:51;20.01;61.02
65985;HTU21D;52748;51.112;5.880;2023-02-22T10:20:57;20.00;61.12
65985;HTU21D;52748;51.112;5.880;2023-02-22T10:23:49;19.99;61.21
65985;HTU21D;52748;51.112;5.880;2023-02-22T10:26:25;20.00;61.38
65985;HTU21D;52748;51.112;5.880;2023-02-22T10:29:05;20.01;61.34
65985;HTU21D;52748;51.112;5.880;2023-02-22T10:31:40;20.02;61.31
65985;HTU21D;52748;51.112;5.880;2023-02-22T10:34:14;20.02;61.38
65985;HTU21D;52748;51.112;5.880;2023-02-22T10:36:45;20.02;61.28
65985;HTU21D;52748;51.112;5.880;2023-02-22T10:39:31;20.07;61.20
65985;HTU21D;52748;51.112;5.880;2023-02-22T10:42:02;20.12;60.96
65985;HTU21D;52748;51.112;5.880;2023-02-22T10:44:32;20.13;61.01
65985;HTU21D;52748;51.112;5.880;2023-02-22T10:47:01;20.14;61.31
65985;HTU21D;52748;51.112;5.880;2023-02-22T10:49:39;20.11;61.65
65985;HTU21D;52748;51.112;5.880;2023-02-22T10:52:31;20.12;61.83
65985;HTU21D;52748;51.112;5.880;2023-02-22T10:55:00;20.13;62.20
65985;HTU21D;52748;51.112;5.880;2023-02-22T10:57:31;20.14;63.05
65985;HTU21D;52748;51.112;5.880;2023-02-22T11:02:56;20.25;64.70
65985;HTU21D;52748;51.112;5.880;2023-02-22T11:05:34;20.27;64.81
65985;HTU21D;52748;51.112;5.880;2023-02-22T11:10:55;20.28;64.95
65985;HTU21D;52748;51.112;5.880;2023-02-22T11:15:53;20.28;65.03
65985;HTU21D;52748;51.112;5.880;2023-02-22T11:18:30;20.29;65.09
65985;HTU21D;52748;51.112;5.880;2023-02-22T11:23:29;20.28;65.38
65985;HTU21D;52748;51.112;5.880;2023-02-22T11:26:18;20.29;65.57
65985;HTU21D;52748;51.112;5.880;2023-02-22T11:28:49;20.32;68.58
65985;HTU21D;52748;51.112;5.880;2023-02-22T11:31:24;20.39;70.61
65985;HTU21D;52748;51.112;5.880;2023-02-22T11:33:57;20.44;71.48
65985;HTU21D;52748;51.112;5.880;2023-02-22T11:36:35;20.44;66.77
65985;HTU21D;52748;51.112;5.880;2023-02-22T11:39:04;20.33;63.27
65985;HTU21D;52748;51.112;5.880;2023-02-22T11:41:33;20.25;62.73
65985;HTU21D;52748;51.112;5.880;2023-02-22T11:46:46;20.10;63.78
65985;HTU21D;52748;51.112;5.880;2023-02-22T11:49:13;20.04;64.03
65985;HTU21D;52748;51.112;5.880;2023-02-22T12:00:16;19.99;64.44
65985;HTU21D;52748;51.112;5.880;2023-02-22T12:05:57;19.92;64.82
65985;HTU21D;52748;51.112;5.880;2023-02-22T12:11:51;19.89;65.01
65985;HTU21D;52748;51.112;5.880;2023-02-22T12:14:41;19.89;65.17
65985;HTU21D;52748;51.112;5.880;2023-02-22T12:20:24;19.88;65.24
65985;HTU21D;52748;51.112;5.880;2023-02-22T12:25:55;19.85;65.42
65985;HTU21D;52748;51.112;5.880;2023-02-22T12:28:35;19.84;65.46
65985;HTU21D;52748;51.112;5.880;2023-02-22T12:31:25;19.83;65.47
65985;HTU21D;52748;51.112;5.880;2023-02-22T12:36:51;19.80;65.58
65985;HTU21D;52748;51.112;5.880;2023-02-22T12:41:47;19.77;65.75
65985;HTU21D;52748;51.112;5.880;2023-02-22T12:44:20;19.75;65.77
65985;HTU21D;52748;51.112;5.880;2023-02-22T12:46:50;19.74;65.78
65985;HTU21D;52748;51.112;5.880;2023-02-22T13:03:30;19.69;65.74
65985;HTU21D;52748;51.112;5.880;2023-02-22T13:06:21;19.69;65.69
65985;HTU21D;52748;51.112;5.880;2023-02-22T13:09:04;19.68;65.72
65985;HTU21D;52748;51.112;5.880;2023-02-22T13:14:40;19.66;65.72
65985;HTU21D;52748;51.112;5.880;2023-02-22T13:27:59;19.62;65.69
65985;HTU21D;52748;51.112;5.880;2023-02-22T13:41:50;19.60;65.53
65985;HTU21D;52748;51.112;5.880;2023-02-22T13:50:46;19.57;65.54
65985;HTU21D;52748;51.112;5.880;2023-02-22T13:53:24;19.55;65.58
65985;HTU21D;52748;51.112;5.880;2023-02-22T13:55:54;19.55;65.62
65985;HTU21D;52748;51.112;5.880;2023-02-22T13:58:22;19.59;65.43
65985;HTU21D;52748;51.112;5.880;2023-02-22T14:00:50;19.61;65.25
65985;HTU21D;52748;51.112;5.880;2023-02-22T14:03:37;19.60;65.26
65985;HTU21D;52748;51.112;5.880;2023-02-22T14:06:10;19.58;65.41
65985;HTU21D;52748;51.112;5.880;2023-02-22T14:08:52;19.57;65.54
65985;HTU21D;52748;51.112;5.880;2023-02-22T14:16:28;19.56;65.63
65985;HTU21D;52748;51.112;5.880;2023-02-22T14:19:17;19.55;65.61
65985;HTU21D;52748;51.112;5.880;2023-02-22T14:22:02;19.56;65.66
65985;HTU21D;52748;51.112;5.880;2023-02-22T14:24:44;19.55;65.62
65985;HTU21D;52748;51.112;5.880;2023-02-22T14:27:13;19.54;65.62
65985;HTU21D;52748;51.112;5.880;2023-02-22T14:29:54;19.55;65.62
65985;HTU21D;52748;51.112;5.880;2023-02-22T14:32:31;19.54;65.65
65985;HTU21D;52748;51.112;5.880;2023-02-22T14:34:59;19.53;65.64
65985;HTU21D;52748;51.112;5.880;2023-02-22T14:37:31;19.54;65.69
65985;HTU21D;52748;51.112;5.880;2023-02-22T14:40:01;19.52;65.69
65985;HTU21D;52748;51.112;5.880;2023-02-22T14:42:50;19.53;65.65
65985;HTU21D;52748;51.112;5.880;2023-02-22T14:45:27;19.52;65.66
65985;HTU21D;52748;51.112;5.880;2023-02-22T14:47:55;19.52;65.65
65985;HTU21D;52748;51.112;5.880;2023-02-22T14:50:58;19.53;65.64
65985;HTU21D;52748;51.112;5.880;2023-02-22T14:53:48;19.53;65.63
65985;HTU21D;52748;51.112;5.880;2023-02-22T14:56:20;19.52;65.61
65985;HTU21D;52748;51.112;5.880;2023-02-22T14:59:05;19.52;65.58
65985;HTU21D;52748;51.112;5.880;2023-02-22T15:01:37;19.52;65.56
65985;HTU21D;52748;51.112;5.880;2023-02-22T15:06:48;19.54;65.55
65985;HTU21D;52748;51.112;5.880;2023-02-22T15:09:30;19.54;65.55
65985;HTU21D;52748;51.112;5.880;2023-02-22T15:14:30;19.53;65.55
65985;HTU21D;52748;51.112;5.880;2023-02-22T15:17:01;19.53;65.54
65985;HTU21D;52748;51.112;5.880;2023-02-22T15:19:36;19.54;65.47
65985;HTU21D;52748;51.112;5.880;2023-02-22T15:22:03;19.57;65.27
65985;HTU21D;52748;51.112;5.880;2023-02-22T15:24:36;19.54;65.38
65985;HTU21D;52748;51.112;5.880;2023-02-22T15:27:07;19.54;65.43
65985;HTU21D;52748;51.112;5.880;2023-02-22T15:29:40;19.52;65.49
65985;HTU21D;52748;51.112;5.880;2023-02-22T15:35:19;19.53;65.52
65985;HTU21D;52748;51.112;5.880;2023-02-22T15:38:11;19.51;65.53
65985;HTU21D;52748;51.112;5.880;2023-02-22T15:40:40;19.55;66.53
65985;HTU21D;52748;51.112;5.880;2023-02-22T15:43:17;19.57;65.72
65985;HTU21D;52748;51.112;5.880;2023-02-22T15:45:44;19.59;65.57
65985;HTU21D;52748;51.112;5.880;2023-02-22T15:48:11;19.59;65.75
65985;HTU21D;52748;51.112;5.880;2023-02-22T15:50:37;19.61;65.92
65985;HTU21D;52748;51.112;5.880;2023-02-22T15:53:28;19.62;66.03
65985;HTU21D;52748;51.112;5.880;2023-02-22T15:55:58;19.62;66.14
65985;HTU21D;52748;51.112;5.880;2023-02-22T15:58:26;19.63;66.19
65985;HTU21D;52748;51.112;5.880;2023-02-22T16:01:09;19.65;66.17
65985;HTU21D;52748;51.112;5.880;2023-02-22T16:06:25;19.68;66.22
65985;HTU21D;52748;51.112;5.880;2023-02-22T16:08:58;19.68;66.20
65985;HTU21D;52748;51.112;5.880;2023-02-22T16:11:35;19.72;66.13
65985;HTU21D;52748;51.112;5.880;2023-02-22T16:14:22;19.72;66.07
65985;HTU21D;52748;51.112;5.880;2023-02-22T16:19:42;19.76;66.27
65985;HTU21D;52748;51.112;5.880;2023-02-22T16:22:35;19.83;66.43
65985;HTU21D;52748;51.112;5.880;2023-02-22T16:25:32;19.85;66.26
65985;HTU21D;52748;51.112;5.880;2023-02-22T16:28:01;19.88;66.15
65985;HTU21D;52748;51.112;5.880;2023-02-22T16:30:39;19.90;66.19
65985;HTU21D;52748;51.112;5.880;2023-02-22T16:33:09;19.90;66.20
65985;HTU21D;52748;51.112;5.880;2023-02-22T16:35:41;19.94;66.56
65985;HTU21D;52748;51.112;5.880;2023-02-22T16:38:17;19.96;66.89
65985;HTU21D;52748;51.112;5.880;2023-02-22T16:40:52;20.03;66.88
65985;HTU21D;52748;51.112;5.880;2023-02-22T16:43:25;20.07;66.44
65985;HTU21D;52748;51.112;5.880;2023-02-22T16:45:52;20.06;66.32
65985;HTU21D;52748;51.112;5.880;2023-02-22T16:48:21;20.09;66.24
65985;HTU21D;52748;51.112;5.880;2023-02-22T16:50:49;20.10;66.16
65985;HTU21D;52748;51.112;5.880;2023-02-22T16:53:18;20.10;66.20
65985;HTU21D;52748;51.112;5.880;2023-02-22T16:55:46;20.10;66.27
65985;HTU21D;52748;51.112;5.880;2023-02-22T16:58:14;20.10;66.34
65985;HTU21D;52748;51.112;5.880;2023-02-22T17:00:40;20.06;66.35
65985;HTU21D;52748;51.112;5.880;2023-02-22T17:03:14;20.05;66.35
65985;HTU21D;52748;51.112;5.880;2023-02-22T17:05:40;20.04;66.34
65985;HTU21D;52748;51.112;5.880;2023-02-22T17:08:13;20.04;66.77
65985;HTU21D;52748;51.112;5.880;2023-02-22T17:10:41;20.10;66.91
65985;HTU21D;52748;51.112;5.880;2023-02-22T17:13:07;20.14;66.94
65985;HTU21D;52748;51.112;5.880;2023-02-22T17:15:34;20.20;66.79
65985;HTU21D;52748;51.112;5.880;2023-02-22T17:18:03;20.27;66.69
65985;HTU21D;52748;51.112;5.880;2023-02-22T17:20:35;20.32;66.68
65985;HTU21D;52748;51.112;5.880;2023-02-22T17:23:03;20.39;66.58
65985;HTU21D;52748;51.112;5.880;2023-02-22T17:25:37;20.36;66.83
65985;HTU21D;52748;51.112;5.880;2023-02-22T17:28:05;20.37;66.84
65985;HTU21D;52748;51.112;5.880;2023-02-22T17:30:31;20.41;66.86
65985;HTU21D;52748;51.112;5.880;2023-02-22T17:33:02;20.42;66.85
65985;HTU21D;52748;51.112;5.880;2023-02-22T17:35:30;20.44;66.85
65985;HTU21D;52748;51.112;5.880;2023-02-22T17:38:00;20.46;66.72
65985;HTU21D;52748;51.112;5.880;2023-02-22T17:40:32;20.47;66.59
65985;HTU21D;52748;51.112;5.880;2023-02-22T17:42:58;20.46;66.79
65985;HTU21D;52748;51.112;5.880;2023-02-22T17:45:27;20.44;65.84
65985;HTU21D;52748;51.112;5.880;2023-02-22T17:47:54;20.42;66.40
65985;HTU21D;52748;51.112;5.880;2023-02-22T17:50:23;20.42;67.17
65985;HTU21D;52748;51.112;5.880;2023-02-22T17:52:49;20.41;66.42
65985;HTU21D;52748;51.112;5.880;2023-02-22T17:55:19;20.39;66.22
65985;HTU21D;52748;51.112;5.880;2023-02-22T17:57:45;20.37;66.39
65985;HTU21D;52748;51.112;5.880;2023-02-22T18:00:15;20.35;65.95
65985;HTU21D;52748;51.112;5.880;2023-02-22T18:02:49;20.32;66.01
65985;HTU21D;52748;51.112;5.880;2023-02-22T18:05:16;20.31;65.88